sensor_id;sensor_type;location;lat;lon;timestamp;pressure;altitude;pressure_sealevel;temperature;humidity
35551;BME280;21655;46.056;13.616;2023-04-28T00:01:14;100840.06;;;8.94;100.00
35551;BME280;21655;46.056;13.616;2023-04-28T00:03:39;100841.75;;;8.87;100.00
35551;BME280;21655;46.056;13.616;2023-04-28T00:06:05;100838.25;;;8.68;100.00
35551;BME280;21655;46.056;13.616;2023-04-28T00:08:30;100842.34;;;8.64;100.00
35551;BME280;21655;46.056;13.616;2023-04-28T00:10:56;100833.09;;;8.55;100.00
35551;BME280;21655;46.056;13.616;2023-04-28T00:13:22;100837.94;;;8.53;100.00
35551;BME280;21655;46.056;13.616;2023-04-28T00:15:52;100829.16;;;8.75;100.00
35551;BME280;21655;46.056;13.616;2023-04-28T00:18:18;100846.00;;;8.82;100.00
35551;BME280;21655;46.056;13.616;2023-04-28T00:20:44;100830.66;;;8.70;100.00
35551;BME280;21655;46.056;13.616;2023-04-28T00:23:09;100834.22;;;8.80;100.00
35551;BME280;21655;46.056;13.616;2023-04-28T00:25:35;100833.44;;;8.70;100.00
35551;BME280;21655;46.056;13.616;2023-04-28T00:28:00;100825.31;;;8.68;100.00
35551;BME280;21655;46.056;13.616;2023-04-28T00:30:26;100836.19;;;8.70;100.00
35551;BME280;21655;46.056;13.616;2023-04-28T00:32:51;100826.59;;;8.74;100.00
35551;BME280;21655;46.056;13.616;2023-04-28T00:35:17;100835.63;;;8.49;100.00
35551;BME280;21655;46.056;13.616;2023-04-28T00:37:43;100829.19;;;8.58;100.00
35551;BME280;21655;46.056;13.616;2023-04-28T00:40:08;100821.53;;;8.69;100.00
35551;BME280;21655;46.056;13.616;2023-04-28T00:42:34;100822.63;;;8.59;100.00
35551;BME280;21655;46.056;13.616;2023-04-28T00:44:59;100823.22;;;8.53;100.00
35551;BME280;21655;46.056;13.616;2023-04-28T00:47:31;100821.28;;;8.63;100.00
35551;BME280;21655;46.056;13.616;2023-04-28T00:49:58;100816.13;;;8.68;100.00
35551;BME280;21655;46.056;13.616;2023-04-28T00:52:23;100814.97;;;8.70;100.00
35551;BME280;21655;46.056;13.616;2023-04-28T00:54:49;100820.63;;;8.69;100.00
35551;BME280;21655;46.056;13.616;2023-04-28T00:57:14;100827.00;;;8.52;100.00
35551;BME280;21655;46.056;13.616;2023-04-28T00:59:40;100823.41;;;8.51;100.00
35551;BME280;21655;46.056;13.616;2023-04-28T01:02:05;100823.47;;;8.59;100.00
35551;BME280;21655;46.056;13.616;2023-04-28T01:04:32;100825.34;;;8.41;100.00
35551;BME280;21655;46.056;13.616;2023-04-28T01:06:59;100824.78;;;8.38;100.00
35551;BME280;21655;46.056;13.616;2023-04-28T01:09:25;100821.66;;;8.50;100.00
35551;BME280;21655;46.056;13.616;2023-04-28T01:11:50;100825.22;;;8.60;100.00
35551;BME280;21655;46.056;13.616;2023-04-28T01:14:15;100827.13;;;8.60;100.00
35551;BME280;21655;46.056;13.616;2023-04-28T01:16:41;100828.81;;;8.43;100.00
35551;BME280;21655;46.056;13.616;2023-04-28T01:19:07;100835.28;;;8.34;100.00
35551;BME280;21655;46.056;13.616;2023-04-28T01:21:37;100837.16;;;8.34;100.00
35551;BME280;21655;46.056;13.616;2023-04-28T01:24:05;100831.34;;;8.37;100.00
35551;BME280;21655;46.056;13.616;2023-04-28T01:26:31;100826.13;;;8.34;100.00
35551;BME280;21655;46.056;13.616;2023-04-28T01:28:56;100827.47;;;8.30;100.00
35551;BME280;21655;46.056;13.616;2023-04-28T01:31:21;100826.03;;;8.26;100.00
35551;BME280;21655;46.056;13.616;2023-04-28T01:33:47;100818.47;;;8.28;100.00
35551;BME280;21655;46.056;13.616;2023-04-28T01:36:12;100819.31;;;8.28;100.00
35551;BME280;21655;46.056;13.616;2023-04-28T01:38:37;100817.13;;;8.32;100.00
35551;BME280;21655;46.056;13.616;2023-04-28T01:41:03;100822.88;;;8.11;100.00
35551;BME280;21655;46.056;13.616;2023-04-28T01:43:28;100821.03;;;8.02;100.00
35551;BME280;21655;46.056;13.616;2023-04-28T01:45:54;100818.75;;;7.98;100.00
35551;BME280;21655;46.056;13.616;2023-04-28T01:48:19;100814.56;;;7.94;100.00
35551;BME280;21655;46.056;13.616;2023-04-28T01:50:45;100821.91;;;8.03;100.00
35551;BME280;21655;46.056;13.616;2023-04-28T01:53:10;100832.44;;;8.17;100.00
35551;BME280;21655;46.056;13.616;2023-04-28T01:55:37;100829.03;;;8.05;100.00
35551;BME280;21655;46.056;13.616;2023-04-28T01:58:02;100827.03;;;7.98;100.00
35551;BME280;21655;46.056;13.616;2023-04-28T02:00:28;100823.03;;;8.10;100.00
35551;BME280;21655;46.056;13.616;2023-04-28T02:02:53;100817.03;;;8.14;100.00
35551;BME280;21655;46.056;13.616;2023-04-28T02:05:19;100829.81;;;8.15;100.00
35551;BME280;21655;46.056;13.616;2023-04-28T02:07:44;100822.03;;;8.11;100.00
35551;BME280;21655;46.056;13.616;2023-04-28T02:10:10;100818.63;;;7.90;100.00
35551;BME280;21655;46.056;13.616;2023-04-28T02:12:35;100819.31;;;8.01;100.00
35551;BME280;21655;46.056;13.616;2023-04-28T02:15:01;100826.97;;;8.07;100.00
35551;BME280;21655;46.056;13.616;2023-04-28T02:17:29;100817.25;;;8.03;100.00
35551;BME280;21655;46.056;13.616;2023-04-28T02:19:54;100815.84;;;7.90;100.00
35551;BME280;21655;46.056;13.616;2023-04-28T02:22:23;100825.91;;;7.81;100.00
35551;BME280;21655;46.056;13.616;2023-04-28T02:24:49;100830.19;;;7.76;100.00
35551;BME280;21655;46.056;13.616;2023-04-28T02:27:16;100820.44;;;7.72;100.00
35551;BME280;21655;46.056;13.616;2023-04-28T02:29:41;100821.50;;;7.61;100.00
35551;BME280;21655;46.056;13.616;2023-04-28T02:32:07;100822.06;;;7.65;100.00
35551;BME280;21655;46.056;13.616;2023-04-28T02:34:33;100822.75;;;7.76;100.00
35551;BME280;21655;46.056;13.616;2023-04-28T02:36:58;100815.75;;;7.82;100.00
35551;BME280;21655;46.056;13.616;2023-04-28T02:39:24;100823.78;;;7.75;100.00
35551;BME280;21655;46.056;13.616;2023-04-28T02:41:54;100817.75;;;7.53;100.00
35551;BME280;21655;46.056;13.616;2023-04-28T02:44:21;100815.16;;;7.51;100.00
35551;BME280;21655;46.056;13.616;2023-04-28T02:46:46;100823.19;;;7.72;100.00
35551;BME280;21655;46.056;13.616;2023-04-28T02:49:12;100824.22;;;7.71;100.00
35551;BME280;21655;46.056;13.616;2023-04-28T02:51:38;100823.72;;;7.58;100.00
35551;BME280;21655;46.056;13.616;2023-04-28T02:54:03;100830.56;;;7.44;100.00
35551;BME280;21655;46.056;13.616;2023-04-28T02:56:29;100824.88;;;7.55;100.00
35551;BME280;21655;46.056;13.616;2023-04-28T02:58:54;100820.78;;;7.59;100.00
35551;BME280;21655;46.056;13.616;2023-04-28T03:01:20;100820.34;;;7.64;100.00
35551;BME280;21655;46.056;13.616;2023-04-28T03:03:45;100825.13;;;7.62;100.00
35551;BME280;21655;46.056;13.616;2023-04-28T03:06:11;100821.47;;;7.71;100.00
35551;BME280;21655;46.056;13.616;2023-04-28T03:08:36;100821.72;;;7.77;100.00
35551;BME280;21655;46.056;13.616;2023-04-28T03:11:02;100832.47;;;7.80;100.00
35551;BME280;21655;46.056;13.616;2023-04-28T03:13:27;100834.38;;;7.80;100.00
35551;BME280;21655;46.056;13.616;2023-04-28T03:15:54;100829.44;;;7.74;100.00
35551;BME280;21655;46.056;13.616;2023-04-28T03:18:20;100830.03;;;7.68;100.00
35551;BME280;21655;46.056;13.616;2023-04-28T03:20:47;100821.91;;;7.76;100.00
35551;BME280;21655;46.056;13.616;2023-04-28T03:23:12;100826.88;;;7.63;100.00
35551;BME280;21655;46.056;13.616;2023-04-28T03:25:37;100819.00;;;7.68;100.00
35551;BME280;21655;46.056;13.616;2023-04-28T03:28:03;100825.53;;;7.67;100.00
35551;BME280;21655;46.056;13.616;2023-04-28T03:30:29;100818.28;;;7.66;100.00
35551;BME280;21655;46.056;13.616;2023-04-28T03:32:54;100815.63;;;7.74;100.00
35551;BME280;21655;46.056;13.616;2023-04-28T03:35:20;100814.47;;;7.76;100.00
35551;BME280;21655;46.056;13.616;2023-04-28T03:37:45;100816.91;;;7.79;100.00
35551;BME280;21655;46.056;13.616;2023-04-28T03:40:11;100821.59;;;7.79;100.00
35551;BME280;21655;46.056;13.616;2023-04-28T03:42:36;100809.34;;;7.91;100.00
35551;BME280;21655;46.056;13.616;2023-04-28T03:45:02;100817.13;;;7.68;100.00
35551;BME280;21655;46.056;13.616;2023-04-28T03:47:28;100817.09;;;7.78;100.00
35551;BME280;21655;46.056;13.616;2023-04-28T03:49:53;100809.94;;;7.85;100.00
35551;BME280;21655;46.056;13.616;2023-04-28T03:52:18;100807.78;;;7.79;100.00
35551;BME280;21655;46.056;13.616;2023-04-28T03:54:44;100802.34;;;7.87;100.00
35551;BME280;21655;46.056;13.616;2023-04-28T03:57:10;100811.56;;;7.78;100.00
35551;BME280;21655;46.056;13.616;2023-04-28T03:59:36;100810.56;;;7.79;100.00
35551;BME280;21655;46.056;13.616;2023-04-28T04:02:02;100814.91;;;7.72;100.00
35551;BME280;21655;46.056;13.616;2023-04-28T04:04:27;100816.47;;;7.84;100.00
35551;BME280;21655;46.056;13.616;2023-04-28T04:06:53;100805.44;;;7.84;100.00
35551;BME280;21655;46.056;13.616;2023-04-28T04:09:18;100818.91;;;7.87;100.00
35551;BME280;21655;46.056;13.616;2023-04-28T04:11:44;100811.53;;;7.87;100.00
35551;BME280;21655;46.056;13.616;2023-04-28T04:14:09;100815.72;;;7.91;100.00
35551;BME280;21655;46.056;13.616;2023-04-28T04:16:35;100809.03;;;7.94;100.00
35551;BME280;21655;46.056;13.616;2023-04-28T04:19:01;100823.72;;;7.85;100.00
35551;BME280;21655;46.056;13.616;2023-04-28T04:21:26;100829.16;;;7.77;100.00
35551;BME280;21655;46.056;13.616;2023-04-28T04:23:52;100823.47;;;7.78;100.00
35551;BME280;21655;46.056;13.616;2023-04-28T04:26:17;100823.28;;;7.89;100.00
35551;BME280;21655;46.056;13.616;2023-04-28T04:28:43;100826.88;;;7.99;100.00
35551;BME280;21655;46.056;13.616;2023-04-28T04:31:08;100836.59;;;8.03;100.00
35551;BME280;21655;46.056;13.616;2023-04-28T04:33:34;100838.72;;;8.09;100.00
35551;BME280;21655;46.056;13.616;2023-04-28T04:36:01;100825.63;;;8.21;100.00
35551;BME280;21655;46.056;13.616;2023-04-28T04:38:26;100830.56;;;8.17;100.00
35551;BME280;21655;46.056;13.616;2023-04-28T04:40:52;100826.94;;;8.44;100.00
35551;BME280;21655;46.056;13.616;2023-04-28T04:43:17;100821.56;;;8.42;100.00
35551;BME280;21655;46.056;13.616;2023-04-28T04:45:43;100818.84;;;8.33;100.00
35551;BME280;21655;46.056;13.616;2023-04-28T04:48:08;100823.66;;;8.58;100.00
35551;BME280;21655;46.056;13.616;2023-04-28T04:50:34;100812.66;;;8.66;100.00
35551;BME280;21655;46.056;13.616;2023-04-28T04:52:59;100819.53;;;8.79;100.00
35551;BME280;21655;46.056;13.616;2023-04-28T04:55:24;100815.03;;;8.96;100.00
35551;BME280;21655;46.056;13.616;2023-04-28T04:57:50;100817.00;;;9.03;100.00
35551;BME280;21655;46.056;13.616;2023-04-28T05:00:16;100816.72;;;9.14;100.00
35551;BME280;21655;46.056;13.616;2023-04-28T05:02:41;100812.03;;;9.07;100.00
35551;BME280;21655;46.056;13.616;2023-04-28T05:05:07;100811.47;;;9.03;100.00
35551;BME280;21655;46.056;13.616;2023-04-28T05:07:33;100817.94;;;8.94;100.00
35551;BME280;21655;46.056;13.616;2023-04-28T05:09:59;100822.78;;;9.10;100.00
35551;BME280;21655;46.056;13.616;2023-04-28T05:12:24;100821.41;;;9.31;100.00
35551;BME280;21655;46.056;13.616;2023-04-28T05:14:50;100823.50;;;9.37;100.00
35551;BME280;21655;46.056;13.616;2023-04-28T05:17:16;100824.38;;;9.37;100.00
35551;BME280;21655;46.056;13.616;2023-04-28T05:19:41;100812.47;;;9.45;100.00
35551;BME280;21655;46.056;13.616;2023-04-28T05:22:07;100819.72;;;9.63;100.00
35551;BME280;21655;46.056;13.616;2023-04-28T05:24:32;100816.00;;;9.80;100.00
35551;BME280;21655;46.056;13.616;2023-04-28T05:26:58;100805.69;;;9.90;100.00
35551;BME280;21655;46.056;13.616;2023-04-28T05:29:24;100809.78;;;10.04;100.00
35551;BME280;21655;46.056;13.616;2023-04-28T05:31:49;100800.63;;;10.11;100.00
35551;BME280;21655;46.056;13.616;2023-04-28T05:34:15;100817.66;;;10.24;100.00
35551;BME280;21655;46.056;13.616;2023-04-28T05:36:40;100827.63;;;10.59;100.00
35551;BME280;21655;46.056;13.616;2023-04-28T05:39:06;100829.94;;;10.71;100.00
35551;BME280;21655;46.056;13.616;2023-04-28T05:41:31;100833.25;;;10.83;100.00
35551;BME280;21655;46.056;13.616;2023-04-28T05:43:57;100836.22;;;10.89;100.00
35551;BME280;21655;46.056;13.616;2023-04-28T05:46:22;100830.97;;;10.86;100.00
35551;BME280;21655;46.056;13.616;2023-04-28T05:48:48;100831.72;;;10.88;100.00
35551;BME280;21655;46.056;13.616;2023-04-28T05:51:13;100829.13;;;11.03;100.00
35551;BME280;21655;46.056;13.616;2023-04-28T05:53:38;100833.13;;;11.24;100.00
35551;BME280;21655;46.056;13.616;2023-04-28T05:56:04;100839.19;;;11.27;100.00
35551;BME280;21655;46.056;13.616;2023-04-28T05:58:30;100843.00;;;11.50;100.00
35551;BME280;21655;46.056;13.616;2023-04-28T06:00:56;100834.88;;;11.57;100.00
35551;BME280;21655;46.056;13.616;2023-04-28T06:03:22;100835.72;;;11.49;100.00
35551;BME280;21655;46.056;13.616;2023-04-28T06:05:47;100842.84;;;11.60;100.00
35551;BME280;21655;46.056;13.616;2023-04-28T06:08:13;100851.00;;;11.45;100.00
35551;BME280;21655;46.056;13.616;2023-04-28T06:10:38;100843.72;;;11.60;100.00
35551;BME280;21655;46.056;13.616;2023-04-28T06:13:03;100842.50;;;11.55;100.00
35551;BME280;21655;46.056;13.616;2023-04-28T06:15:31;100837.63;;;11.73;100.00
35551;BME280;21655;46.056;13.616;2023-04-28T06:17:57;100838.63;;;11.96;100.00
35551;BME280;21655;46.056;13.616;2023-04-28T06:20:23;100824.25;;;12.31;100.00
35551;BME280;21655;46.056;13.616;2023-04-28T06:22:48;100819.72;;;12.30;100.00
35551;BME280;21655;46.056;13.616;2023-04-28T06:25:14;100820.94;;;12.35;100.00
35551;BME280;21655;46.056;13.616;2023-04-28T06:27:39;100820.34;;;12.48;100.00
35551;BME280;21655;46.056;13.616;2023-04-28T06:30:05;100812.16;;;12.54;100.00
35551;BME280;21655;46.056;13.616;2023-04-28T06:32:31;100829.50;;;12.64;100.00
35551;BME280;21655;46.056;13.616;2023-04-28T06:34:56;100827.09;;;12.84;100.00
35551;BME280;21655;46.056;13.616;2023-04-28T06:37:22;100815.72;;;13.01;100.00
35551;BME280;21655;46.056;13.616;2023-04-28T06:39:47;100827.94;;;13.14;100.00
35551;BME280;21655;46.056;13.616;2023-04-28T06:42:13;100827.81;;;13.53;100.00
35551;BME280;21655;46.056;13.616;2023-04-28T06:44:42;100822.88;;;13.92;100.00
35551;BME280;21655;46.056;13.616;2023-04-28T06:47:07;100824.66;;;14.07;100.00
35551;BME280;21655;46.056;13.616;2023-04-28T06:49:33;100819.91;;;14.08;100.00
35551;BME280;21655;46.056;13.616;2023-04-28T06:51:58;100820.97;;;13.78;100.00
35551;BME280;21655;46.056;13.616;2023-04-28T06:54:24;100811.38;;;13.58;100.00
35551;BME280;21655;46.056;13.616;2023-04-28T06:56:49;100819.16;;;13.48;100.00
35551;BME280;21655;46.056;13.616;2023-04-28T06:59:15;100821.59;;;13.65;100.00
35551;BME280;21655;46.056;13.616;2023-04-28T07:01:40;100816.00;;;13.51;100.00
35551;BME280;21655;46.056;13.616;2023-04-28T07:04:05;100817.91;;;13.50;100.00
35551;BME280;21655;46.056;13.616;2023-04-28T07:06:31;100805.03;;;13.49;100.00
35551;BME280;21655;46.056;13.616;2023-04-28T07:08:56;100816.78;;;13.59;100.00
35551;BME280;21655;46.056;13.616;2023-04-28T07:11:22;100815.97;;;13.88;100.00
35551;BME280;21655;46.056;13.616;2023-04-28T07:13:47;100816.94;;;13.95;100.00
35551;BME280;21655;46.056;13.616;2023-04-28T07:16:16;100813.84;;;13.90;100.00
35551;BME280;21655;46.056;13.616;2023-04-28T07:18:42;100805.22;;;14.14;100.00
35551;BME280;21655;46.056;13.616;2023-04-28T07:21:07;100802.53;;;14.35;100.00
35551;BME280;21655;46.056;13.616;2023-04-28T07:23:33;100795.06;;;14.35;100.00
35551;BME280;21655;46.056;13.616;2023-04-28T07:25:58;100786.38;;;14.45;100.00
35551;BME280;21655;46.056;13.616;2023-04-28T07:28:24;100787.09;;;14.68;100.00
35551;BME280;21655;46.056;13.616;2023-04-28T07:30:49;100788.75;;;14.62;100.00
35551;BME280;21655;46.056;13.616;2023-04-28T07:33:14;100781.34;;;14.90;100.00
35551;BME280;21655;46.056;13.616;2023-04-28T07:35:40;100794.75;;;14.80;100.00
35551;BME280;21655;46.056;13.616;2023-04-28T07:38:05;100803.84;;;14.68;100.00
35551;BME280;21655;46.056;13.616;2023-04-28T07:40:31;100803.53;;;14.77;100.00
35551;BME280;21655;46.056;13.616;2023-04-28T07:42:56;100803.50;;;14.92;100.00
35551;BME280;21655;46.056;13.616;2023-04-28T07:45:22;100802.78;;;15.04;100.00
35551;BME280;21655;46.056;13.616;2023-04-28T07:47:47;100811.56;;;15.01;100.00
35551;BME280;21655;46.056;13.616;2023-04-28T07:50:13;100823.78;;;15.00;100.00
35551;BME280;21655;46.056;13.616;2023-04-28T07:52:38;100822.06;;;14.99;100.00
35551;BME280;21655;46.056;13.616;2023-04-28T07:55:04;100830.19;;;14.80;100.00
35551;BME280;21655;46.056;13.616;2023-04-28T07:57:30;100836.50;;;14.67;100.00
35551;BME280;21655;46.056;13.616;2023-04-28T07:59:55;100831.88;;;14.60;100.00
35551;BME280;21655;46.056;13.616;2023-04-28T08:02:21;100829.47;;;14.42;100.00
35551;BME280;21655;46.056;13.616;2023-04-28T08:04:46;100831.03;;;14.16;100.00
35551;BME280;21655;46.056;13.616;2023-04-28T08:07:12;100833.41;;;14.04;100.00
35551;BME280;21655;46.056;13.616;2023-04-28T08:09:38;100837.88;;;13.91;100.00
35551;BME280;21655;46.056;13.616;2023-04-28T08:12:05;100832.06;;;14.00;100.00
35551;BME280;21655;46.056;13.616;2023-04-28T08:14:31;100841.09;;;14.02;100.00
35551;BME280;21655;46.056;13.616;2023-04-28T08:16:56;100830.59;;;14.04;100.00
35551;BME280;21655;46.056;13.616;2023-04-28T08:19:22;100837.91;;;14.05;100.00
35551;BME280;21655;46.056;13.616;2023-04-28T08:21:48;100831.06;;;14.08;100.00
35551;BME280;21655;46.056;13.616;2023-04-28T08:24:13;100833.44;;;14.19;100.00
35551;BME280;21655;46.056;13.616;2023-04-28T08:26:39;100833.03;;;14.22;100.00
35551;BME280;21655;46.056;13.616;2023-04-28T08:29:04;100824.28;;;14.25;100.00
35551;BME280;21655;46.056;13.616;2023-04-28T08:31:30;100829.44;;;14.57;100.00
35551;BME280;21655;46.056;13.616;2023-04-28T08:33:55;100830.63;;;14.98;100.00
35551;BME280;21655;46.056;13.616;2023-04-28T08:36:21;100824.69;;;14.86;100.00
35551;BME280;21655;46.056;13.616;2023-04-28T08:38:47;100823.56;;;14.81;100.00
35551;BME280;21655;46.056;13.616;2023-04-28T08:41:16;100830.78;;;15.10;100.00
35551;BME280;21655;46.056;13.616;2023-04-28T08:43:42;100824.28;;;15.24;100.00
35551;BME280;21655;46.056;13.616;2023-04-28T08:46:08;100820.22;;;15.48;100.00
35551;BME280;21655;46.056;13.616;2023-04-28T08:48:42;100817.84;;;15.66;100.00
35551;BME280;21655;46.056;13.616;2023-04-28T08:51:13;100827.72;;;15.68;100.00
35551;BME280;21655;46.056;13.616;2023-04-28T08:53:43;100822.56;;;15.65;100.00
35551;BME280;21655;46.056;13.616;2023-04-28T08:56:09;100821.84;;;15.84;100.00
35551;BME280;21655;46.056;13.616;2023-04-28T08:58:38;100823.75;;;16.05;100.00
35551;BME280;21655;46.056;13.616;2023-04-28T09:01:04;100818.91;;;15.92;100.00
35551;BME280;21655;46.056;13.616;2023-04-28T09:03:30;100822.50;;;15.86;100.00
35551;BME280;21655;46.056;13.616;2023-04-28T09:05:57;100814.81;;;15.67;100.00
35551;BME280;21655;46.056;13.616;2023-04-28T09:08:22;100816.13;;;15.71;100.00
35551;BME280;21655;46.056;13.616;2023-04-28T09:11:07;100816.59;;;15.47;100.00
35551;BME280;21655;46.056;13.616;2023-04-28T09:13:33;100805.72;;;15.59;100.00
35551;BME280;21655;46.056;13.616;2023-04-28T09:15:59;100816.19;;;15.50;100.00
35551;BME280;21655;46.056;13.616;2023-04-28T09:18:27;100805.06;;;15.57;100.00
35551;BME280;21655;46.056;13.616;2023-04-28T09:21:04;100797.94;;;15.54;100.00
35551;BME280;21655;46.056;13.616;2023-04-28T09:23:31;100801.22;;;15.37;100.00
35551;BME280;21655;46.056;13.616;2023-04-28T09:26:05;100807.06;;;15.42;100.00
35551;BME280;21655;46.056;13.616;2023-04-28T09:28:33;100806.41;;;15.40;100.00
35551;BME280;21655;46.056;13.616;2023-04-28T09:30:59;100800.88;;;15.25;100.00
35551;BME280;21655;46.056;13.616;2023-04-28T09:33:25;100802.97;;;15.23;100.00
35551;BME280;21655;46.056;13.616;2023-04-28T09:35:51;100809.63;;;15.22;100.00
35551;BME280;21655;46.056;13.616;2023-04-28T09:38:18;100814.13;;;15.38;100.00
35551;BME280;21655;46.056;13.616;2023-04-28T09:41:01;100814.13;;;15.38;100.00
35551;BME280;21655;46.056;13.616;2023-04-28T09:45:54;100811.84;;;15.48;100.00
35551;BME280;21655;46.056;13.616;2023-04-28T09:48:34;100816.69;;;15.39;100.00
35551;BME280;21655;46.056;13.616;2023-04-28T09:51:01;100813.88;;;15.33;100.00
35551;BME280;21655;46.056;13.616;2023-04-28T09:53:27;100811.06;;;15.33;100.00
35551;BME280;21655;46.056;13.616;2023-04-28T09:55:55;100810.19;;;15.32;100.00
35551;BME280;21655;46.056;13.616;2023-04-28T09:58:21;100808.13;;;15.41;100.00
35551;BME280;21655;46.056;13.616;2023-04-28T10:00:55;100802.34;;;15.42;100.00
35551;BME280;21655;46.056;13.616;2023-04-28T10:03:22;100797.28;;;15.31;100.00
35551;BME280;21655;46.056;13.616;2023-04-28T10:05:48;100786.03;;;15.46;100.00
35551;BME280;21655;46.056;13.616;2023-04-28T10:08:15;100796.75;;;15.42;100.00
35551;BME280;21655;46.056;13.616;2023-04-28T10:10:42;100801.94;;;15.24;100.00
35551;BME280;21655;46.056;13.616;2023-04-28T10:13:08;100802.03;;;15.16;100.00
35551;BME280;21655;46.056;13.616;2023-04-28T10:15:34;100800.56;;;15.00;100.00
35551;BME280;21655;46.056;13.616;2023-04-28T10:18:01;100805.06;;;14.80;100.00
35551;BME280;21655;46.056;13.616;2023-04-28T10:20:28;100794.88;;;14.72;100.00
35551;BME280;21655;46.056;13.616;2023-04-28T10:25:41;100802.81;;;14.90;100.00
35551;BME280;21655;46.056;13.616;2023-04-28T10:28:07;100807.03;;;15.00;100.00
35551;BME280;21655;46.056;13.616;2023-04-28T10:30:34;100805.00;;;14.94;100.00
35551;BME280;21655;46.056;13.616;2023-04-28T10:38:08;100778.41;;;14.98;100.00
35551;BME280;21655;46.056;13.616;2023-04-28T10:43:01;100776.06;;;15.16;100.00
35551;BME280;21655;46.056;13.616;2023-04-28T10:48:18;100765.31;;;15.34;100.00
35551;BME280;21655;46.056;13.616;2023-04-28T10:51:20;100784.88;;;15.19;100.00
35551;BME280;21655;46.056;13.616;2023-04-28T10:56:14;100780.78;;;14.80;100.00
35551;BME280;21655;46.056;13.616;2023-04-28T10:58:41;100779.28;;;14.63;100.00
35551;BME280;21655;46.056;13.616;2023-04-28T11:04:02;100769.41;;;15.38;100.00
35551;BME280;21655;46.056;13.616;2023-04-28T11:06:39;100779.66;;;15.52;100.00
35551;BME280;21655;46.056;13.616;2023-04-28T11:11:37;100773.47;;;17.24;100.00
35551;BME280;21655;46.056;13.616;2023-04-28T11:16:52;100762.00;;;18.43;100.00
35551;BME280;21655;46.056;13.616;2023-04-28T11:19:25;100773.31;;;18.74;100.00
35551;BME280;21655;46.056;13.616;2023-04-28T11:21:52;100759.84;;;18.89;100.00
35551;BME280;21655;46.056;13.616;2023-04-28T11:24:20;100759.31;;;18.67;100.00
35551;BME280;21655;46.056;13.616;2023-04-28T11:26:46;100740.56;;;18.92;100.00
35551;BME280;21655;46.056;13.616;2023-04-28T11:29:12;100731.44;;;19.65;100.00
35551;BME280;21655;46.056;13.616;2023-04-28T11:31:39;100735.63;;;20.59;100.00
35551;BME280;21655;46.056;13.616;2023-04-28T11:34:09;100731.56;;;21.20;100.00
35551;BME280;21655;46.056;13.616;2023-04-28T11:36:41;100728.59;;;20.50;100.00
35551;BME280;21655;46.056;13.616;2023-04-28T11:39:11;100711.91;;;20.84;100.00
35551;BME280;21655;46.056;13.616;2023-04-28T11:41:44;100710.66;;;21.50;100.00
35551;BME280;21655;46.056;13.616;2023-04-28T11:44:14;100716.06;;;20.64;100.00
35551;BME280;21655;46.056;13.616;2023-04-28T11:46:48;100712.09;;;21.01;100.00
35551;BME280;21655;46.056;13.616;2023-04-28T11:49:41;100699.56;;;21.37;100.00
35551;BME280;21655;46.056;13.616;2023-04-28T11:52:08;100695.31;;;21.05;100.00
35551;BME280;21655;46.056;13.616;2023-04-28T11:54:35;100695.19;;;20.35;100.00
35551;BME280;21655;46.056;13.616;2023-04-28T11:57:01;100703.94;;;19.85;100.00
35551;BME280;21655;46.056;13.616;2023-04-28T11:59:34;100710.16;;;19.69;100.00
35551;BME280;21655;46.056;13.616;2023-04-28T12:02:03;100697.59;;;20.32;100.00
35551;BME280;21655;46.056;13.616;2023-04-28T12:09:38;100688.00;;;19.30;80.93
35551;BME280;21655;46.056;13.616;2023-04-28T12:12:12;100678.88;;;19.03;63.82
35551;BME280;21655;46.056;13.616;2023-04-28T12:15:01;100681.56;;;19.23;62.75
35551;BME280;21655;46.056;13.616;2023-04-28T12:20:04;100664.69;;;19.47;92.48
35551;BME280;21655;46.056;13.616;2023-04-28T12:22:45;100672.66;;;19.75;100.00
35551;BME280;21655;46.056;13.616;2023-04-28T12:25:15;100679.84;;;19.89;96.22
35551;BME280;21655;46.056;13.616;2023-04-28T12:30:30;100667.00;;;19.32;86.31
35551;BME280;21655;46.056;13.616;2023-04-28T12:32:56;100676.88;;;19.41;87.65
35551;BME280;21655;46.056;13.616;2023-04-28T12:35:23;100675.63;;;19.06;84.27
35551;BME280;21655;46.056;13.616;2023-04-28T12:37:50;100677.56;;;18.69;82.21
35551;BME280;21655;46.056;13.616;2023-04-28T12:40:16;100678.53;;;18.56;80.31
35551;BME280;21655;46.056;13.616;2023-04-28T12:42:41;100669.75;;;18.40;94.58
35551;BME280;21655;46.056;13.616;2023-04-28T12:45:07;100667.16;;;18.38;97.12
35551;BME280;21655;46.056;13.616;2023-04-28T12:47:36;100663.53;;;18.31;87.91
35551;BME280;21655;46.056;13.616;2023-04-28T12:50:03;100656.81;;;18.26;81.88
35551;BME280;21655;46.056;13.616;2023-04-28T12:52:28;100650.19;;;18.07;75.43
35551;BME280;21655;46.056;13.616;2023-04-28T12:54:57;100646.31;;;18.02;74.73
35551;BME280;21655;46.056;13.616;2023-04-28T12:57:22;100642.63;;;18.14;98.68
35551;BME280;21655;46.056;13.616;2023-04-28T12:59:47;100635.03;;;18.21;91.29
35551;BME280;21655;46.056;13.616;2023-04-28T13:02:14;100626.13;;;18.37;85.25
35551;BME280;21655;46.056;13.616;2023-04-28T13:04:42;100610.59;;;18.66;82.08
35551;BME280;21655;46.056;13.616;2023-04-28T13:07:10;100608.34;;;18.81;74.63
35551;BME280;21655;46.056;13.616;2023-04-28T13:09:36;100608.47;;;18.92;79.18